createdAt,value
2022-10-07T00:01:54.698Z,58.60
2022-10-07T00:04:24.678Z,58.30
2022-10-07T00:06:54.604Z,57.90
2022-10-07T00:09:24.549Z,57.20
2022-10-07T00:11:56.091Z,58.20
2022-10-07T00:14:26.082Z,57.80
2022-10-07T00:16:56.142Z,58.00
2022-10-07T00:19:26.113Z,58.20
2022-10-07T00:21:56.463Z,58.30
2022-10-07T00:24:26.468Z,56.80
2022-10-07T00:26:57.022Z,58.60
2022-10-07T00:29:27.105Z,57.80
2022-10-07T00:31:57.557Z,58.10
2022-10-07T00:34:27.701Z,58.30
2022-10-07T00:36:57.633Z,58.00
2022-10-07T00:39:27.561Z,58.10
2022-10-07T00:41:57.523Z,58.10
2022-10-07T00:44:33.625Z,58.20
2022-10-07T00:47:04.485Z,57.20
2022-10-07T00:49:38.707Z,57.70
2022-10-07T00:52:08.864Z,57.90
2022-10-07T00:54:39.004Z,56.60
2022-10-07T00:57:09.472Z,57.80
2022-10-07T00:59:41.273Z,58.20
2022-10-07T01:02:11.309Z,57.80
2022-10-07T01:04:41.307Z,58.30
2022-10-07T01:07:12.207Z,57.50
2022-10-07T01:09:44.188Z,56.00
2022-10-07T01:12:38.233Z,58.30
2022-10-07T01:15:29.363Z,57.80
2022-10-07T01:18:08.526Z,57.10
2022-10-07T01:21:01.387Z,55.60
2022-10-07T01:23:54.395Z,55.20
2022-10-07T01:26:48.611Z,55.60
2022-10-07T01:29:27.343Z,54.50
2022-10-07T01:32:06.161Z,54.80
2022-10-07T01:34:37.558Z,55.00
2022-10-07T01:37:11.147Z,54.90
2022-10-07T01:39:51.059Z,54.60
2022-10-07T01:42:22.076Z,54.30
2022-10-07T01:44:55.170Z,54.10
2022-10-07T01:47:26.848Z,53.20
2022-10-07T01:49:57.625Z,54.70
2022-10-07T01:52:48.791Z,54.10
2022-10-07T01:55:46.331Z,54.50
2022-10-07T01:58:41.255Z,52.80
2022-10-07T02:01:28.123Z,54.00
2022-10-07T02:04:26.837Z,52.80
2022-10-07T02:07:18.770Z,54.30
2022-10-07T02:09:49.852Z,54.30
2022-10-07T02:12:42.072Z,53.80
2022-10-07T02:15:18.094Z,52.20
2022-10-07T02:17:55.226Z,53.80
2022-10-07T02:20:28.578Z,53.70
2022-10-07T02:22:59.593Z,54.30
2022-10-07T02:25:30.141Z,54.50
2022-10-07T02:28:07.729Z,54.80
2022-10-07T02:30:38.859Z,55.50
2022-10-07T02:33:11.546Z,55.10
2022-10-07T02:35:53.469Z,54.60
2022-10-07T02:38:23.517Z,54.20
2022-10-07T02:41:00.910Z,54.70
2022-10-07T02:43:41.947Z,55.20
2022-10-07T02:46:32.685Z,53.80
2022-10-07T02:49:07.201Z,54.10
2022-10-07T02:51:43.446Z,53.40
2022-10-07T02:54:13.675Z,54.80
2022-10-07T02:56:44.428Z,54.20
2022-10-07T02:59:14.426Z,53.90
2022-10-07T03:01:47.676Z,54.00
2022-10-07T03:04:17.722Z,53.80
2022-10-07T03:06:47.815Z,54.40
2022-10-07T03:09:17.775Z,54.40
2022-10-07T03:11:55.461Z,53.20
2022-10-07T03:14:28.513Z,53.80
2022-10-07T03:16:58.057Z,53.70
2022-10-07T03:19:28.386Z,53.70
2022-10-07T03:22:00.392Z,53.90
2022-10-07T03:24:32.335Z,54.00
2022-10-07T03:27:02.313Z,52.80
2022-10-07T03:29:34.147Z,53.80
2022-10-07T03:32:05.205Z,53.20
2022-10-07T03:34:36.571Z,53.40
2022-10-07T03:37:38.750Z,53.50
2022-10-07T03:40:12.081Z,53.50
2022-10-07T03:42:45.196Z,54.10
2022-10-07T03:45:15.320Z,54.20
2022-10-07T03:47:46.192Z,54.10
2022-10-07T03:50:16.618Z,53.70
2022-10-07T03:52:46.903Z,54.60
2022-10-07T03:55:17.533Z,55.40
2022-10-07T03:57:59.172Z,54.90
2022-10-07T04:00:31.452Z,54.90
2022-10-07T04:03:01.538Z,55.30
2022-10-07T04:05:31.580Z,54.60
2022-10-07T04:08:04.509Z,55.50
2022-10-07T04:10:35.455Z,55.50
2022-10-07T04:13:06.564Z,55.30
2022-10-07T04:15:37.656Z,55.20
2022-10-07T04:18:08.443Z,55.60
2022-10-07T04:20:53.392Z,55.30
2022-10-07T04:23:24.297Z,55.50
2022-10-07T04:25:54.522Z,55.30
2022-10-07T04:28:27.290Z,55.60
2022-10-07T04:31:11.266Z,55.50
2022-10-07T04:33:47.852Z,55.40
2022-10-07T04:36:31.277Z,55.00
2022-10-07T04:39:10.215Z,54.10
2022-10-07T04:41:45.031Z,55.20
2022-10-07T04:44:19.916Z,54.90
2022-10-07T04:47:01.375Z,54.50
2022-10-07T04:49:33.156Z,54.40
2022-10-07T04:52:05.585Z,54.40
2022-10-07T04:54:40.646Z,53.60
2022-10-07T04:57:11.297Z,54.40
2022-10-07T04:59:43.101Z,54.80
2022-10-07T05:02:17.234Z,54.70
2022-10-07T05:04:48.525Z,54.60
2022-10-07T05:07:19.536Z,54.70
2022-10-07T05:09:49.508Z,55.00
2022-10-07T05:12:19.503Z,54.50
2022-10-07T05:14:49.518Z,54.20
2022-10-07T05:17:20.942Z,54.00
2022-10-07T05:19:50.905Z,54.70
2022-10-07T05:22:21.223Z,54.90
2022-10-07T05:24:51.238Z,54.60
2022-10-07T05:27:21.826Z,55.00
2022-10-07T05:29:51.858Z,54.50
2022-10-07T05:32:22.477Z,54.60
2022-10-07T05:34:53.910Z,53.30
2022-10-07T05:37:24.682Z,54.50
2022-10-07T05:39:54.799Z,54.20
2022-10-07T05:42:32.403Z,54.50
2022-10-07T05:45:07.091Z,54.60
2022-10-07T05:47:38.691Z,54.90
2022-10-07T05:50:10.485Z,53.60
2022-10-07T05:52:41.626Z,54.30
2022-10-07T05:55:12.895Z,53.50
2022-10-07T05:57:43.904Z,53.60
2022-10-07T06:00:15.542Z,54.10
2022-10-07T06:02:50.345Z,53.80
2022-10-07T06:05:21.177Z,53.60
2022-10-07T06:07:51.801Z,54.00
2022-10-07T06:10:40.091Z,53.50
2022-10-07T06:13:11.754Z,53.80
2022-10-07T06:15:45.038Z,53.30
2022-10-07T06:18:15.272Z,53.50
2022-10-07T06:20:55.988Z,53.80
2022-10-07T06:23:27.432Z,53.50
2022-10-07T06:26:04.347Z,53.70
2022-10-07T06:28:38.267Z,53.70
2022-10-07T06:31:10.087Z,53.60
2022-10-07T06:33:40.406Z,53.50
2022-10-07T06:36:15.592Z,53.40
2022-10-07T06:38:48.465Z,53.30
2022-10-07T06:41:20.714Z,54.20
2022-10-07T06:43:56.338Z,53.80
2022-10-07T06:46:28.653Z,52.80
2022-10-07T06:48:59.440Z,53.50
2022-10-07T06:51:29.575Z,53.20
2022-10-07T06:53:59.718Z,53.20
2022-10-07T06:56:30.346Z,53.70
2022-10-07T06:59:01.030Z,52.90
2022-10-07T07:01:39.541Z,54.20
2022-10-07T07:04:09.666Z,53.20
2022-10-07T07:06:40.081Z,52.80
2022-10-07T07:09:11.842Z,52.50
2022-10-07T07:11:46.372Z,53.40
2022-10-07T07:14:23.774Z,53.40
2022-10-07T07:17:02.855Z,53.60
2022-10-07T07:19:33.414Z,53.10
2022-10-07T07:22:03.968Z,54.10
2022-10-07T07:24:34.924Z,53.50
2022-10-07T07:27:06.727Z,54.10
2022-10-07T07:29:36.928Z,53.70
2022-10-07T07:32:07.466Z,52.70
2022-10-07T07:34:41.322Z,53.50
2022-10-07T07:37:14.828Z,53.60
2022-10-07T07:39:50.132Z,53.30
2022-10-07T07:42:20.742Z,52.80
2022-10-07T07:44:51.292Z,52.30
2022-10-07T07:47:24.034Z,52.90
2022-10-07T07:49:54.137Z,51.80
2022-10-07T07:52:30.027Z,53.50
2022-10-07T07:55:04.329Z,53.60
2022-10-07T07:57:35.671Z,53.70
2022-10-07T08:00:09.389Z,53.50
2022-10-07T08:02:55.096Z,54.50
2022-10-07T08:05:26.603Z,53.40
2022-10-07T08:07:59.999Z,53.90
2022-10-07T08:10:30.895Z,55.20
2022-10-07T08:13:01.946Z,55.60
2022-10-07T08:15:32.625Z,55.10
2022-10-07T08:18:05.586Z,54.40
2022-10-07T08:20:35.081Z,53.40
2022-10-07T08:23:23.047Z,55.20
2022-10-07T08:26:18.593Z,55.40
2022-10-07T08:28:50.220Z,54.90
2022-10-07T08:31:21.150Z,53.50
2022-10-07T08:33:52.247Z,55.10
2022-10-07T08:36:23.456Z,53.10
2022-10-07T08:38:53.377Z,55.50
2022-10-07T08:41:41.698Z,55.60
2022-10-07T08:44:23.651Z,54.00
2022-10-07T08:47:03.287Z,55.00
2022-10-07T08:49:55.618Z,53.90
2022-10-07T08:52:45.511Z,54.30
2022-10-07T08:55:19.918Z,53.90
2022-10-07T08:58:20.855Z,55.50
2022-10-07T09:00:59.177Z,55.50
2022-10-07T09:04:18.253Z,55.20
2022-10-07T09:06:57.813Z,55.30
2022-10-07T09:09:32.464Z,55.50
2022-10-07T09:12:03.680Z,55.90
2022-10-07T09:14:40.119Z,54.80
2022-10-07T09:17:23.324Z,52.70
2022-10-07T09:20:08.785Z,54.70
2022-10-07T09:22:39.979Z,55.00
2022-10-07T09:25:20.665Z,55.20
2022-10-07T09:27:52.515Z,53.60
2022-10-07T09:30:23.923Z,55.80
2022-10-07T09:32:57.467Z,53.80
2022-10-07T09:35:28.778Z,53.10
2022-10-07T09:37:59.798Z,54.10
2022-10-07T09:40:37.387Z,53.50
2022-10-07T09:43:19.927Z,54.50
2022-10-07T09:45:50.592Z,53.30
2022-10-07T09:48:28.941Z,53.70
2022-10-07T09:51:20.502Z,53.50
2022-10-07T09:54:20.439Z,53.80
2022-10-07T09:56:50.332Z,53.50
2022-10-07T09:59:24.532Z,53.50
2022-10-07T10:02:16.348Z,53.70
2022-10-07T10:04:53.662Z,53.80
2022-10-07T10:07:37.273Z,53.90
2022-10-07T10:10:18.234Z,53.80
2022-10-07T10:12:49.926Z,54.20
2022-10-07T10:15:31.328Z,53.00
2022-10-07T10:18:01.218Z,52.80
2022-10-07T10:20:37.111Z,53.00
2022-10-07T10:23:39.362Z,53.40
2022-10-07T10:26:31.159Z,52.40
2022-10-07T10:29:42.766Z,54.10
2022-10-07T10:32:24.597Z,52.70
2022-10-07T10:35:21.645Z,53.70
2022-10-07T10:37:59.410Z,53.90
2022-10-07T10:40:38.548Z,53.50
2022-10-07T10:43:26.465Z,53.30
2022-10-07T10:46:19.612Z,54.20
2022-10-07T10:49:05.030Z,52.00
2022-10-07T10:51:57.685Z,53.30
2022-10-07T10:54:41.141Z,52.40
2022-10-07T10:57:20.322Z,52.90
2022-10-07T11:00:10.593Z,53.50
2022-10-07T11:02:41.720Z,53.40
2022-10-07T11:05:34.496Z,53.50
2022-10-07T11:08:29.405Z,53.90
2022-10-07T11:11:27.294Z,52.00
2022-10-07T11:14:01.511Z,53.60
2022-10-07T11:16:42.903Z,53.70
2022-10-07T11:19:21.934Z,53.80
2022-10-07T11:21:52.915Z,53.70
2022-10-07T11:24:30.543Z,52.60
2022-10-07T11:27:12.610Z,52.70
2022-10-07T11:30:07.697Z,52.80
2022-10-07T11:32:56.076Z,53.40
2022-10-07T11:35:50.777Z,53.00
2022-10-07T11:38:28.682Z,51.20
2022-10-07T11:41:01.878Z,53.10
2022-10-07T11:43:34.660Z,53.50
2022-10-07T11:46:28.003Z,51.40
2022-10-07T11:49:04.841Z,53.00
2022-10-07T11:51:42.161Z,52.20
2022-10-07T11:54:17.432Z,52.20
2022-10-07T11:56:52.545Z,52.40
2022-10-07T11:59:44.107Z,52.80
2022-10-07T12:02:32.749Z,53.90
2022-10-07T12:05:03.499Z,53.50
2022-10-07T12:07:46.288Z,54.00
2022-10-07T12:10:29.228Z,53.80
2022-10-07T12:13:02.623Z,54.90
2022-10-07T12:15:44.931Z,55.00
2022-10-07T12:18:30.133Z,55.20
2022-10-07T12:21:06.650Z,54.80
2022-10-07T12:23:40.918Z,54.90
2022-10-07T12:26:32.228Z,54.50
2022-10-07T12:29:02.228Z,55.20
2022-10-07T12:31:47.422Z,55.90
2022-10-07T12:34:45.102Z,55.70
2022-10-07T12:37:42.833Z,55.80
2022-10-07T12:40:22.530Z,56.30
2022-10-07T12:42:55.786Z,56.90
2022-10-07T12:45:26.936Z,57.10
2022-10-07T12:47:57.895Z,57.00
2022-10-07T12:50:28.524Z,56.80
2022-10-07T12:52:59.922Z,56.90
2022-10-07T12:55:40.205Z,56.30
2022-10-07T12:58:54.255Z,56.40
2022-10-07T13:01:27.877Z,56.70
2022-10-07T13:04:06.753Z,56.60
2022-10-07T13:07:12.853Z,57.10
2022-10-07T13:09:55.854Z,56.40
2022-10-07T13:12:44.567Z,56.90
2022-10-07T13:15:27.493Z,57.00
2022-10-07T13:18:26.765Z,57.30
2022-10-07T13:21:18.578Z,56.60
2022-10-07T13:23:55.501Z,56.40
2022-10-07T13:26:26.565Z,57.30
2022-10-07T13:29:00.516Z,56.70
2022-10-07T13:31:32.021Z,56.50
2022-10-07T13:34:04.153Z,57.00
2022-10-07T13:36:34.189Z,56.70
2022-10-07T13:39:13.274Z,57.10
2022-10-07T13:41:50.032Z,56.60
2022-10-07T13:44:20.818Z,56.90
2022-10-07T13:47:07.343Z,57.10
2022-10-07T13:49:42.100Z,57.00
2022-10-07T13:52:23.306Z,57.40
2022-10-07T13:54:53.506Z,56.60
2022-10-07T13:57:23.512Z,56.60
2022-10-07T13:59:53.788Z,57.30
2022-10-07T14:02:24.128Z,56.20
2022-10-07T14:05:01.816Z,56.20
2022-10-07T14:08:27.362Z,57.40
2022-10-07T14:11:13.028Z,56.60
2022-10-07T14:13:44.037Z,56.40
2022-10-07T14:16:22.744Z,56.20
2022-10-07T14:18:53.515Z,56.00
2022-10-07T14:21:23.378Z,56.60
2022-10-07T14:23:53.470Z,56.60
2022-10-07T14:26:23.341Z,56.80
2022-10-07T14:28:55.768Z,56.90
2022-10-07T14:31:44.747Z,56.40
2022-10-07T14:34:37.236Z,55.90
2022-10-07T14:37:12.870Z,56.60
2022-10-07T14:39:50.836Z,56.50
2022-10-07T14:42:24.558Z,56.70
2022-10-07T14:45:05.262Z,56.60
2022-10-07T14:47:42.463Z,57.20
2022-10-07T14:50:13.640Z,56.40
2022-10-07T14:52:50.692Z,57.00
2022-10-07T14:55:28.399Z,56.90
2022-10-07T14:57:58.312Z,57.20
2022-10-07T15:00:32.842Z,56.40
2022-10-07T15:03:04.955Z,56.40
2022-10-07T15:05:35.036Z,56.00
2022-10-07T15:08:05.476Z,56.90
2022-10-07T15:10:36.105Z,56.60
2022-10-07T15:13:12.393Z,56.60
2022-10-07T15:15:46.229Z,56.90
2022-10-07T15:18:16.536Z,57.10
2022-10-07T15:20:46.774Z,57.10
2022-10-07T15:23:18.130Z,56.30
2022-10-07T15:25:48.014Z,56.80
2022-10-07T15:28:18.690Z,56.30
2022-10-07T15:30:49.952Z,57.00
2022-10-07T15:33:21.365Z,56.40
2022-10-07T15:36:00.692Z,56.90
2022-10-07T15:38:32.659Z,56.10
2022-10-07T15:41:04.424Z,56.40
2022-10-07T15:43:38.613Z,56.20
2022-10-07T15:46:11.160Z,56.30
2022-10-07T15:48:41.908Z,55.30
2022-10-07T15:51:12.730Z,57.10
2022-10-07T15:53:42.952Z,56.50
2022-10-07T15:56:13.335Z,57.00
2022-10-07T15:58:44.902Z,56.30
2022-10-07T16:01:16.501Z,55.20
2022-10-07T16:03:50.148Z,56.00
2022-10-07T16:06:23.754Z,56.20
2022-10-07T16:08:56.481Z,57.10
2022-10-07T16:11:27.951Z,57.10
2022-10-07T16:13:59.677Z,56.30
2022-10-07T16:16:32.613Z,57.00
2022-10-07T16:19:02.702Z,56.10
2022-10-07T16:21:40.301Z,55.90
2022-10-07T16:24:16.336Z,56.90
2022-10-07T16:26:47.094Z,57.50
2022-10-07T16:29:37.492Z,56.00
2022-10-07T16:32:11.581Z,56.30
2022-10-07T16:34:45.643Z,55.70
2022-10-07T16:37:16.544Z,54.90
2022-10-07T16:39:47.243Z,56.80
2022-10-07T16:42:17.600Z,57.00
2022-10-07T16:44:50.734Z,55.90
2022-10-07T16:47:20.601Z,56.70
2022-10-07T16:49:50.809Z,55.80
2022-10-07T16:52:22.268Z,56.20
2022-10-07T16:54:52.510Z,55.50
2022-10-07T16:57:22.412Z,55.10
2022-10-07T16:59:54.661Z,56.10
2022-10-07T17:02:25.239Z,56.30
2022-10-07T17:04:55.166Z,55.30
2022-10-07T17:07:25.085Z,55.40
2022-10-07T17:09:55.026Z,55.90
2022-10-07T17:12:25.937Z,55.60
2022-10-07T17:14:56.487Z,55.40
2022-10-07T17:17:26.515Z,55.30
2022-10-07T17:19:56.423Z,55.40
2022-10-07T17:22:26.582Z,55.20
2022-10-07T17:24:56.682Z,55.00
2022-10-07T17:27:26.672Z,55.50
2022-10-07T17:29:56.670Z,54.70
2022-10-07T17:32:28.419Z,54.90
2022-10-07T17:34:58.602Z,53.70
2022-10-07T17:37:28.533Z,54.40
2022-10-07T17:39:58.435Z,55.10
2022-10-07T17:42:29.002Z,54.70
2022-10-07T17:44:59.439Z,54.60
2022-10-07T17:47:29.556Z,53.40
2022-10-07T17:49:59.514Z,54.90
2022-10-07T17:52:29.752Z,54.60
2022-10-07T17:54:59.942Z,53.50
2022-10-07T17:57:29.894Z,54.50
2022-10-07T17:59:59.818Z,54.30
2022-10-07T18:02:30.032Z,54.20
2022-10-07T18:05:00.344Z,54.60
2022-10-07T18:07:30.470Z,54.20
2022-10-07T18:10:01.276Z,54.00
2022-10-07T18:12:50.805Z,54.60
2022-10-07T18:15:21.514Z,54.50
2022-10-07T18:17:52.201Z,53.20
2022-10-07T18:20:23.939Z,54.20
2022-10-07T18:22:58.031Z,54.20
2022-10-07T18:25:28.221Z,54.00
2022-10-07T18:27:58.129Z,54.00
2022-10-07T18:30:28.087Z,54.20
2022-10-07T18:32:58.849Z,53.30
2022-10-07T18:35:28.886Z,54.00
2022-10-07T18:37:58.817Z,53.80
2022-10-07T18:40:28.679Z,53.40
2022-10-07T18:42:58.600Z,53.40
2022-10-07T18:45:28.560Z,54.00
2022-10-07T18:47:58.522Z,53.80
2022-10-07T18:50:32.760Z,52.80
2022-10-07T18:53:04.593Z,53.60
2022-10-07T18:55:34.532Z,53.30
2022-10-07T18:58:04.453Z,53.60
2022-10-07T19:00:34.847Z,53.20
2022-10-07T19:03:07.563Z,53.00
2022-10-07T19:05:40.961Z,53.10
2022-10-07T19:08:11.250Z,53.10
2022-10-07T19:10:44.701Z,53.10
2022-10-07T19:13:33.805Z,52.70
2022-10-07T19:16:06.761Z,52.90
2022-10-07T19:18:36.985Z,52.90
2022-10-07T19:21:06.945Z,52.70
2022-10-07T19:23:37.509Z,51.80
2022-10-07T19:26:07.613Z,52.70
2022-10-07T19:28:38.780Z,52.90
2022-10-07T19:31:16.101Z,53.10
2022-10-07T19:33:47.898Z,51.40
2022-10-07T19:36:18.325Z,52.80
2022-10-07T19:38:48.616Z,52.90
2022-10-07T19:41:18.702Z,51.90
2022-10-07T19:43:49.704Z,51.40
2022-10-07T19:46:21.077Z,52.10
2022-10-07T19:48:51.216Z,52.30
2022-10-07T19:51:21.411Z,52.70
2022-10-07T19:53:52.346Z,52.50
2022-10-07T19:56:29.749Z,51.20
2022-10-07T19:59:01.531Z,52.30
2022-10-07T20:01:36.172Z,52.10
2022-10-07T20:04:08.161Z,51.00
2022-10-07T20:06:38.594Z,51.70
2022-10-07T20:09:09.927Z,52.30
2022-10-07T20:11:39.866Z,52.20
2022-10-07T20:14:11.173Z,51.70
2022-10-07T20:16:41.166Z,51.60
2022-10-07T20:19:15.545Z,51.90
2022-10-07T20:21:45.475Z,51.70
2022-10-07T20:24:16.359Z,52.20
2022-10-07T20:26:46.494Z,51.40
2022-10-07T20:29:20.393Z,51.90
2022-10-07T20:31:53.521Z,51.60
2022-10-07T20:34:23.519Z,51.40
2022-10-07T20:36:55.966Z,52.20
2022-10-07T20:39:44.317Z,52.20
2022-10-07T20:42:23.314Z,51.30
2022-10-07T20:44:54.386Z,52.20
2022-10-07T20:47:25.280Z,51.10
2022-10-07T20:49:57.805Z,51.90
2022-10-07T20:52:29.129Z,51.90
2022-10-07T20:54:59.660Z,51.60
2022-10-07T20:57:34.979Z,51.50
2022-10-07T21:00:17.223Z,51.90
2022-10-07T21:02:48.353Z,51.20
2022-10-07T21:05:18.590Z,50.40
2022-10-07T21:07:52.458Z,51.60
2022-10-07T21:10:25.283Z,51.40
2022-10-07T21:12:55.403Z,52.20
2022-10-07T21:15:26.515Z,51.70
2022-10-07T21:17:57.114Z,50.90
2022-10-07T21:20:27.879Z,51.40
2022-10-07T21:22:58.044Z,51.80
2022-10-07T21:25:28.014Z,51.00
2022-10-07T21:27:57.899Z,52.00
2022-10-07T21:30:27.781Z,51.50
2022-10-07T21:32:59.110Z,51.10
2022-10-07T21:35:29.363Z,51.50
2022-10-07T21:37:59.664Z,51.10
2022-10-07T21:40:31.548Z,51.30
2022-10-07T21:43:01.698Z,51.10
2022-10-07T21:45:32.337Z,51.10
2022-10-07T21:48:03.140Z,51.30
2022-10-07T21:50:33.806Z,51.70
2022-10-07T21:53:04.100Z,50.90
2022-10-07T21:55:36.667Z,51.50
2022-10-07T21:58:06.693Z,50.90
2022-10-07T22:00:37.397Z,52.00
2022-10-07T22:03:07.788Z,51.10
2022-10-07T22:05:40.605Z,50.60
2022-10-07T22:08:33.605Z,51.30
2022-10-07T22:11:08.742Z,51.20
2022-10-07T22:13:50.883Z,51.50
2022-10-07T22:16:21.116Z,49.80
2022-10-07T22:18:52.367Z,49.10
2022-10-07T22:21:24.152Z,50.70
2022-10-07T22:23:55.745Z,50.80
2022-10-07T22:26:30.437Z,50.80
2022-10-07T22:29:00.534Z,51.00
2022-10-07T22:31:31.393Z,50.90
2022-10-07T22:34:01.844Z,50.50
2022-10-07T22:36:31.801Z,50.50
2022-10-07T22:39:01.843Z,50.80
2022-10-07T22:41:32.142Z,51.10
2022-10-07T22:44:02.253Z,50.60
2022-10-07T22:46:32.260Z,50.50
2022-10-07T22:49:02.245Z,50.70
2022-10-07T22:51:32.752Z,51.00
2022-10-07T22:54:02.984Z,50.80
2022-10-07T22:56:32.893Z,50.30
2022-10-07T22:59:02.842Z,50.70
2022-10-07T23:01:32.834Z,49.60
2022-10-07T23:04:04.176Z,49.80
2022-10-07T23:06:35.841Z,50.40
2022-10-07T23:09:06.002Z,50.20
2022-10-07T23:11:36.359Z,49.90
2022-10-07T23:14:06.825Z,50.40
2022-10-07T23:16:37.316Z,50.30
2022-10-07T23:19:07.568Z,50.00
2022-10-07T23:21:38.289Z,50.50
2022-10-07T23:24:08.598Z,49.50
2022-10-07T23:26:38.734Z,50.60
2022-10-07T23:29:13.014Z,50.30
2022-10-07T23:31:45.912Z,48.80
2022-10-07T23:34:15.916Z,50.00
2022-10-07T23:36:45.887Z,50.10
2022-10-07T23:39:15.812Z,50.20
2022-10-07T23:41:46.254Z,50.20
2022-10-07T23:44:16.183Z,50.60
2022-10-07T23:46:46.197Z,50.00
2022-10-07T23:49:16.125Z,49.20
2022-10-07T23:51:48.890Z,49.80
2022-10-07T23:54:18.903Z,48.90
2022-10-07T23:56:50.406Z,49.90
2022-10-07T23:59:20.389Z,50.10
